Nos Reves — PB9455 — position and weather

sailwx.info

Track history (hours):
 
Tides and Currents Weather Stations Pressure Air Temp Water Temp Dewpoint Dewpoint Depression Visibility Wind Speed Wind Dir Waves Ship Positions

Nos Reves

Last reported at 2016-Jun-27 12:29 UTC. Time now 2016-Jun-27 13:14 UTC.
Position N 43°34' E 007°05'.

Length 15 m.

Type: Sailing vessel. MMSI: 244650262.

Date/timePositionNaut miles runAvg speedWind from/ knotsBaromVisibWave heightAir tempDewpointWater temp
2016-Jun-27 12:29N 43°34' E 007°05'0 0.0
2016-Jun-27 11:29N 43°34' E 007°05'0 0.0
2016-Jun-27 10:17N 43°34' E 007°05'0 0.0
2016-Jun-27 09:29N 43°34' E 007°05'0 0.0
2016-Jun-27 08:29N 43°34' E 007°05'0 0.0
2016-Jun-27 07:29N 43°34' E 007°05'0 0.0
2016-Jun-27 05:29N 43°34' E 007°05'0 0.0
2016-Jun-27 04:29N 43°34' E 007°05'0 0.0
2016-Jun-27 03:17N 43°34' E 007°05'0 0.0
2016-Jun-27 02:17N 43°34' E 007°05'0 0.0
2016-Jun-27 01:29N 43°34' E 007°05'0 0.0
2016-Jun-27 00:29N 43°34' E 007°05'0 0.0
2016-Jun-26 23:29N 43°34' E 007°05'0 0.0
2016-Jun-26 22:23N 43°34' E 007°05'0 0.0
2016-Jun-26 21:29N 43°34' E 007°05'0 0.0
2016-Jun-26 20:29N 43°34' E 007°05'3 3.4
2016-Jun-26 19:33N 43°32' E 007°08'7 6.8
2016-Jun-26 18:32N 43°29' E 007°17'10 6.6
2016-Jun-26 17:05N 43°25' E 007°28'4 7.0
2016-Jun-26 16:33N 43°23' E 007°33'7 6.8
2016-Jun-26 15:33N 43°19' E 007°41'65 5.9
2016-Jun-26 04:31N 42°35' E 008°45'1 0.1
2016-Jun-25 12:15N 42°34' E 008°46'0 0.0
2016-Jun-25 11:32N 42°34' E 008°46'0 0.0
2016-Jun-25 10:14N 42°34' E 008°46'2 1.2
2016-Jun-25 08:28N 42°36' E 008°47'27 5.4
2016-Jun-25 03:33N 42°54' E 009°14'6 4.8
2016-Jun-25 02:23N 42°58' E 009°09'5 6.0
2016-Jun-25 01:33N 43°02' E 009°05'11 5.3
2016-Jun-24 23:33N 43°12' E 009°00'5 4.6
2016-Jun-24 22:33N 43°17' E 009°01'4 4.0
2016-Jun-24 21:34N 43°21' E 009°02'4 3.8
2016-Jun-24 20:33N 43°24' E 009°02'4 4.0
2016-Jun-24 19:33N 43°28' E 009°03'4 4.2
2016-Jun-24 18:33N 43°32' E 009°04'4 4.5
2016-Jun-24 17:33N 43°37' E 009°05'5 4.5
2016-Jun-24 16:33N 43°41' E 009°05'5 4.6
2016-Jun-24 15:33N 43°46' E 009°06'4 4.3
2016-Jun-24 14:33N 43°50' E 009°07'5 5.1
2016-Jun-24 13:33N 43°55' E 009°08'5 5.0
2016-Jun-24 12:33N 44°00' E 009°09'4 4.5
2016-Jun-24 11:33N 44°05' E 009°11'2 1.9
2016-Jun-24 10:33N 44°06' E 009°13'2 2.0
2016-Jun-24 09:33N 44°07' E 009°14'3 3.3
2016-Jun-24 08:33N 44°10' E 009°16'4 4.4
2016-Jun-24 07:33N 44°15' E 009°17'5 0.3
2016-Jun-23 13:33N 44°17' E 009°12'6 5.6
2016-Jun-23 12:33N 44°17' E 009°04'5 5.4
2016-Jun-23 11:33N 44°18' E 008°56'5 5.5
2016-Jun-23 10:34N 44°18' E 008°49'5 5.0
2016-Jun-23 09:33N 44°19' E 008°42'6 5.6
2016-Jun-23 08:33N 44°21' E 008°35'0 0.1
2016-Jun-23 05:19N 44°21' E 008°34'0 0.0
2016-Jun-23 04:25N 44°21' E 008°34'0 0.0
2016-Jun-23 03:28N 44°21' E 008°34'0 0.0
2016-Jun-23 02:28N 44°21' E 008°34'0 0.0
2016-Jun-23 01:25N 44°21' E 008°34'0 0.0
2016-Jun-23 00:28N 44°21' E 008°34'0 0.0
2016-Jun-22 23:31N 44°21' E 008°34'0 0.0
2016-Jun-22 22:25N 44°21' E 008°34'0 0.0
2016-Jun-22 21:31N 44°21' E 008°34'0 0.0
2016-Jun-22 20:31N 44°21' E 008°34'0 0.0
2016-Jun-22 19:22N 44°21' E 008°34'0 0.0
2016-Jun-22 18:16N 44°21' E 008°34'0 0.0
2016-Jun-22 17:31N 44°21' E 008°34'0 0.0
2016-Jun-22 16:25N 44°21' E 008°34'0 0.0
2016-Jun-22 15:28N 44°21' E 008°34'2 2.5
2016-Jun-22 14:33N 44°19' E 008°34'4 3.5
2016-Jun-22 13:33N 44°16' E 008°33'5 5.3
2016-Jun-22 12:33N 44°12' E 008°27'4 3.5
2016-Jun-22 11:32N 44°09' E 008°26'13 1.3
2016-Jun-22 01:27N 44°01' E 008°12'0 0.0
2016-Jun-22 00:30N 44°01' E 008°12'0 0.0
2016-Jun-21 22:30N 44°01' E 008°12'0 0.0
2016-Jun-21 21:33N 44°01' E 008°12'0 0.0
2016-Jun-21 20:30N 44°01' E 008°12'0 0.0
2016-Jun-21 19:33N 44°01' E 008°12'0 0.0
2016-Jun-21 18:21N 44°01' E 008°12'0 0.0
2016-Jun-21 17:33N 44°01' E 008°12'  
2016-Jun-19 13:07N 43°39' E 007°21'3 4.1
2016-Jun-19 12:30N 43°37' E 007°18'4 4.5
2016-Jun-19 11:33N 43°34' E 007°14'5 4.6
2016-Jun-19 10:33N 43°32' E 007°08'3 2.7
2016-Jun-19 09:33N 43°34' E 007°05'0 0.4
2016-Jun-19 08:24N 43°34' E 007°05'0 0.0
2016-Jun-19 07:30N 43°34' E 007°05'0 0.0
2016-Jun-19 06:30N 43°34' E 007°05'0 0.0
2016-Jun-19 05:24N 43°34' E 007°05'0 0.0
2016-Jun-19 04:30N 43°34' E 007°05'0 0.0
2016-Jun-19 03:30N 43°34' E 007°05'0 0.0
2016-Jun-19 02:24N 43°34' E 007°05'0 0.0
2016-Jun-19 01:24N 43°34' E 007°05'0 0.0
2016-Jun-19 00:30N 43°34' E 007°05'0 0.0
2016-Jun-18 23:30N 43°34' E 007°05'0 0.0
2016-Jun-18 22:30N 43°34' E 007°05'0 0.0
2016-Jun-18 21:29N 43°34' E 007°05'0 0.0
2016-Jun-18 20:05N 43°34' E 007°05'0 0.0
2016-Jun-18 19:29N 43°34' E 007°05'0 0.0
2016-Jun-18 18:17N 43°34' E 007°05'0 0.0
2016-Jun-18 17:29N 43°34' E 007°05'0 0.0
2016-Jun-18 16:29N 43°34' E 007°05'0 0.0
2016-Jun-18 15:23N 43°34' E 007°05'0 0.0
2016-Jun-18 14:29N 43°34' E 007°05'0 0.0
2016-Jun-18 13:29N 43°34' E 007°05'0 0.0
2016-Jun-18 12:29N 43°34' E 007°05'0 0.0
2016-Jun-18 11:29N 43°34' E 007°05'0 0.0
2016-Jun-18 10:29N 43°34' E 007°05'0 0.0
2016-Jun-18 09:23N 43°34' E 007°05'0 0.0
2016-Jun-18 08:23N 43°34' E 007°05'0 0.0
2016-Jun-18 07:11N 43°34' E 007°05'0 0.0
2016-Jun-18 06:29N 43°34' E 007°05'0 0.0
2016-Jun-18 05:23N 43°34' E 007°05'0 0.0
2016-Jun-18 04:29N 43°34' E 007°05'0 0.0
2016-Jun-18 03:29N 43°34' E 007°05'0 0.0
2016-Jun-18 02:29N 43°34' E 007°05'0 0.0
2016-Jun-18 01:29N 43°34' E 007°05'0 0.0
2016-Jun-18 00:29N 43°34' E 007°05'0 0.0
2016-Jun-17 23:23N 43°34' E 007°05'0 0.0
2016-Jun-17 22:27N 43°34' E 007°05'0 0.0
2016-Jun-17 21:33N 43°34' E 007°05'0 0.0
2016-Jun-17 20:33N 43°34' E 007°05'0 0.0
2016-Jun-17 19:33N 43°34' E 007°05'0 0.0
2016-Jun-17 18:33N 43°34' E 007°05'0 0.0
2016-Jun-17 17:14N 43°34' E 007°05'0 0.0
2016-Jun-17 16:32N 43°34' E 007°05'0 0.0
2016-Jun-17 15:32N 43°34' E 007°05'0 0.0
2016-Jun-17 14:33N 43°34' E 007°05'0 0.0
2016-Jun-17 13:32N 43°34' E 007°05'  
Track history (hours):
 
Tides and Currents Weather Stations Pressure Air Temp Water Temp Dewpoint Dewpoint Depression Visibility Wind Speed Wind Dir Waves Ship Positions

Nos Reves

Last reported at 2016-Jun-27 12:29 UTC. Time now 2016-Jun-27 13:14 UTC.
Position N 43°34' E 007°05'.

Length 15 m.

Type: Sailing vessel. MMSI: 244650262.

Date/timePositionNaut miles runAvg speedWind from/ knotsBaromVisibWave heightAir tempDewpointWater temp
2016-Jun-27 12:29N 43°34' E 007°05'0 0.0
2016-Jun-27 11:29N 43°34' E 007°05'0 0.0
2016-Jun-27 10:17N 43°34' E 007°05'0 0.0
2016-Jun-27 09:29N 43°34' E 007°05'0 0.0
2016-Jun-27 08:29N 43°34' E 007°05'0 0.0
2016-Jun-27 07:29N 43°34' E 007°05'0 0.0
2016-Jun-27 05:29N 43°34' E 007°05'0 0.0
2016-Jun-27 04:29N 43°34' E 007°05'0 0.0
2016-Jun-27 03:17N 43°34' E 007°05'0 0.0
2016-Jun-27 02:17N 43°34' E 007°05'0 0.0
2016-Jun-27 01:29N 43°34' E 007°05'0 0.0
2016-Jun-27 00:29N 43°34' E 007°05'0 0.0
2016-Jun-26 23:29N 43°34' E 007°05'0 0.0
2016-Jun-26 22:23N 43°34' E 007°05'0 0.0
2016-Jun-26 21:29N 43°34' E 007°05'0 0.0
2016-Jun-26 20:29N 43°34' E 007°05'3 3.4
2016-Jun-26 19:33N 43°32' E 007°08'7 6.8
2016-Jun-26 18:32N 43°29' E 007°17'10 6.6
2016-Jun-26 17:05N 43°25' E 007°28'4 7.0
2016-Jun-26 16:33N 43°23' E 007°33'7 6.8
2016-Jun-26 15:33N 43°19' E 007°41'65 5.9
2016-Jun-26 04:31N 42°35' E 008°45'1 0.1
2016-Jun-25 12:15N 42°34' E 008°46'0 0.0
2016-Jun-25 11:32N 42°34' E 008°46'0 0.0
2016-Jun-25 10:14N 42°34' E 008°46'2 1.2
2016-Jun-25 08:28N 42°36' E 008°47'27 5.4
2016-Jun-25 03:33N 42°54' E 009°14'6 4.8
2016-Jun-25 02:23N 42°58' E 009°09'5 6.0
2016-Jun-25 01:33N 43°02' E 009°05'11 5.3
2016-Jun-24 23:33N 43°12' E 009°00'5 4.6
2016-Jun-24 22:33N 43°17' E 009°01'4 4.0
2016-Jun-24 21:34N 43°21' E 009°02'4 3.8
2016-Jun-24 20:33N 43°24' E 009°02'4 4.0
2016-Jun-24 19:33N 43°28' E 009°03'4 4.2
2016-Jun-24 18:33N 43°32' E 009°04'4 4.5
2016-Jun-24 17:33N 43°37' E 009°05'5 4.5
2016-Jun-24 16:33N 43°41' E 009°05'5 4.6
2016-Jun-24 15:33N 43°46' E 009°06'4 4.3
2016-Jun-24 14:33N 43°50' E 009°07'5 5.1
2016-Jun-24 13:33N 43°55' E 009°08'5 5.0
2016-Jun-24 12:33N 44°00' E 009°09'4 4.5
2016-Jun-24 11:33N 44°05' E 009°11'2 1.9
2016-Jun-24 10:33N 44°06' E 009°13'2 2.0
2016-Jun-24 09:33N 44°07' E 009°14'3 3.3
2016-Jun-24 08:33N 44°10' E 009°16'4 4.4
2016-Jun-24 07:33N 44°15' E 009°17'5 0.3
2016-Jun-23 13:33N 44°17' E 009°12'6 5.6
2016-Jun-23 12:33N 44°17' E 009°04'5 5.4
2016-Jun-23 11:33N 44°18' E 008°56'5 5.5
2016-Jun-23 10:34N 44°18' E 008°49'5 5.0
2016-Jun-23 09:33N 44°19' E 008°42'6 5.6
2016-Jun-23 08:33N 44°21' E 008°35'0 0.1
2016-Jun-23 05:19N 44°21' E 008°34'0 0.0
2016-Jun-23 04:25N 44°21' E 008°34'0 0.0
2016-Jun-23 03:28N 44°21' E 008°34'0 0.0
2016-Jun-23 02:28N 44°21' E 008°34'0 0.0
2016-Jun-23 01:25N 44°21' E 008°34'0 0.0
2016-Jun-23 00:28N 44°21' E 008°34'0 0.0
2016-Jun-22 23:31N 44°21' E 008°34'0 0.0
2016-Jun-22 22:25N 44°21' E 008°34'0 0.0
2016-Jun-22 21:31N 44°21' E 008°34'0 0.0
2016-Jun-22 20:31N 44°21' E 008°34'0 0.0
2016-Jun-22 19:22N 44°21' E 008°34'0 0.0
2016-Jun-22 18:16N 44°21' E 008°34'0 0.0
2016-Jun-22 17:31N 44°21' E 008°34'0 0.0
2016-Jun-22 16:25N 44°21' E 008°34'0 0.0
2016-Jun-22 15:28N 44°21' E 008°34'2 2.5
2016-Jun-22 14:33N 44°19' E 008°34'4 3.5
2016-Jun-22 13:33N 44°16' E 008°33'5 5.3
2016-Jun-22 12:33N 44°12' E 008°27'4 3.5
2016-Jun-22 11:32N 44°09' E 008°26'13 1.3
2016-Jun-22 01:27N 44°01' E 008°12'0 0.0
2016-Jun-22 00:30N 44°01' E 008°12'0 0.0
2016-Jun-21 22:30N 44°01' E 008°12'0 0.0
2016-Jun-21 21:33N 44°01' E 008°12'0 0.0
2016-Jun-21 20:30N 44°01' E 008°12'0 0.0
2016-Jun-21 19:33N 44°01' E 008°12'0 0.0
2016-Jun-21 18:21N 44°01' E 008°12'0 0.0
2016-Jun-21 17:33N 44°01' E 008°12'  
2016-Jun-19 13:07N 43°39' E 007°21'3 4.1
2016-Jun-19 12:30N 43°37' E 007°18'4 4.5
2016-Jun-19 11:33N 43°34' E 007°14'5 4.6
2016-Jun-19 10:33N 43°32' E 007°08'3 2.7
2016-Jun-19 09:33N 43°34' E 007°05'0 0.4
2016-Jun-19 08:24N 43°34' E 007°05'0 0.0
2016-Jun-19 07:30N 43°34' E 007°05'0 0.0
2016-Jun-19 06:30N 43°34' E 007°05'0 0.0
2016-Jun-19 05:24N 43°34' E 007°05'0 0.0
2016-Jun-19 04:30N 43°34' E 007°05'0 0.0
2016-Jun-19 03:30N 43°34' E 007°05'0 0.0
2016-Jun-19 02:24N 43°34' E 007°05'0 0.0
2016-Jun-19 01:24N 43°34' E 007°05'0 0.0
2016-Jun-19 00:30N 43°34' E 007°05'0 0.0
2016-Jun-18 23:30N 43°34' E 007°05'0 0.0
2016-Jun-18 22:30N 43°34' E 007°05'0 0.0
2016-Jun-18 21:29N 43°34' E 007°05'0 0.0
2016-Jun-18 20:05N 43°34' E 007°05'0 0.0
2016-Jun-18 19:29N 43°34' E 007°05'0 0.0
2016-Jun-18 18:17N 43°34' E 007°05'0 0.0
2016-Jun-18 17:29N 43°34' E 007°05'0 0.0
2016-Jun-18 16:29N 43°34' E 007°05'0 0.0
2016-Jun-18 15:23N 43°34' E 007°05'0 0.0
2016-Jun-18 14:29N 43°34' E 007°05'0 0.0
2016-Jun-18 13:29N 43°34' E 007°05'0 0.0
2016-Jun-18 12:29N 43°34' E 007°05'0 0.0
2016-Jun-18 11:29N 43°34' E 007°05'0 0.0
2016-Jun-18 10:29N 43°34' E 007°05'0 0.0
2016-Jun-18 09:23N 43°34' E 007°05'0 0.0
2016-Jun-18 08:23N 43°34' E 007°05'0 0.0
2016-Jun-18 07:11N 43°34' E 007°05'0 0.0
2016-Jun-18 06:29N 43°34' E 007°05'0 0.0
2016-Jun-18 05:23N 43°34' E 007°05'0 0.0
2016-Jun-18 04:29N 43°34' E 007°05'0 0.0
2016-Jun-18 03:29N 43°34' E 007°05'0 0.0
2016-Jun-18 02:29N 43°34' E 007°05'0 0.0
2016-Jun-18 01:29N 43°34' E 007°05'0 0.0
2016-Jun-18 00:29N 43°34' E 007°05'0 0.0
2016-Jun-17 23:23N 43°34' E 007°05'0 0.0
2016-Jun-17 22:27N 43°34' E 007°05'0 0.0
2016-Jun-17 21:33N 43°34' E 007°05'0 0.0
2016-Jun-17 20:33N 43°34' E 007°05'0 0.0
2016-Jun-17 19:33N 43°34' E 007°05'0 0.0
2016-Jun-17 18:33N 43°34' E 007°05'0 0.0
2016-Jun-17 17:14N 43°34' E 007°05'0 0.0
2016-Jun-17 16:32N 43°34' E 007°05'0 0.0
2016-Jun-17 15:32N 43°34' E 007°05'0 0.0
2016-Jun-17 14:33N 43°34' E 007°05'0 0.0
2016-Jun-17 13:32N 43°34' E 007°05'  

Dump ship's entire track history